Time;durP1;ratioP1;P1;durP2;ratioP2;P2;SDS_P1;SDS_P2;PMS_P1;PMS_P2;Temp;Humidity;BMP_temperature;BMP_pressure;BME280_temperature;BME280_humidity;BME280_pressure;Samples;Min_cycle;Max_cycle;Signal;HPM_P1;HPM_P2
2021/05/27 00:00:11;;;;;;;20.45;9.35;;;15.00;79.20;;;;;;5051205;28;20036;-69
2021/05/27 00:02:36;;;;;;;13.63;8.43;;;14.90;79.00;;;;;;5063552;28;20128;-69
2021/05/27 00:05:04;;;;;;;28.77;10.02;;;14.90;79.00;;;;;;5054346;28;20112;-69
2021/05/27 00:07:30;;;;;;;16.33;9.20;;;14.80;78.90;;;;;;5049500;28;20033;-69
2021/05/27 00:09:55;;;;;;;17.05;8.65;;;14.70;79.10;;;;;;5054318;28;20501;-68
2021/05/27 00:12:21;;;;;;;15.95;8.10;;;14.70;79.30;;;;;;5050011;28;20040;-69
2021/05/27 00:14:48;;;;;;;14.48;9.02;;;14.60;79.50;;;;;;5049497;28;20037;-68
2021/05/27 00:17:17;;;;;;;19.23;9.68;;;14.70;79.50;;;;;;5056207;28;20029;-69
2021/05/27 00:19:44;;;;;;;18.30;9.25;;;14.70;79.50;;;;;;5061918;28;20055;-68
2021/05/27 00:22:09;;;;;;;18.13;9.10;;;14.70;79.50;;;;;;5059523;28;20028;-68
2021/05/27 00:24:38;;;;;;;18.45;10.32;;;14.60;79.50;;;;;;5057246;28;20182;-69
2021/05/27 00:27:05;;;;;;;18.60;9.38;;;14.60;79.70;;;;;;5066369;28;20143;-69
2021/05/27 00:29:31;;;;;;;18.58;8.80;;;14.50;79.70;;;;;;5052338;28;20156;-68
2021/05/27 00:31:57;;;;;;;17.20;8.45;;;14.50;79.90;;;;;;5048721;28;20055;-68
2021/05/27 00:34:23;;;;;;;25.58;9.07;;;14.50;79.80;;;;;;5066596;28;20378;-69
2021/05/27 00:36:49;;;;;;;17.45;8.00;;;14.50;79.80;;;;;;5058895;28;20040;-68
2021/05/27 00:39:15;;;;;;;17.23;8.60;;;14.50;80.00;;;;;;5053202;28;20399;-68
2021/05/27 00:41:40;;;;;;;15.75;8.55;;;14.50;80.00;;;;;;5031865;28;20086;-68
2021/05/27 00:44:23;;;;;;;17.88;8.55;;;14.50;80.00;;;;;;5054485;28;20024;-68
2021/05/27 00:46:50;;;;;;;20.42;9.27;;;14.40;80.20;;;;;;5051760;28;20025;-68
2021/05/27 00:49:16;;;;;;;24.13;8.77;;;14.50;80.00;;;;;;5054607;28;20029;-68
2021/05/27 00:51:44;;;;;;;16.55;8.90;;;14.50;80.10;;;;;;5052799;28;20048;-68
2021/05/27 00:54:10;;;;;;;23.10;10.05;;;14.50;80.20;;;;;;5058359;28;20033;-69
2021/05/27 00:56:36;;;;;;;20.38;9.18;;;14.50;80.00;;;;;;5049250;28;20491;-69
2021/05/27 00:59:03;;;;;;;14.95;8.90;;;14.40;80.00;;;;;;5055930;28;20135;-68
2021/05/27 01:01:29;;;;;;;24.77;9.05;;;14.40;80.20;;;;;;5068188;28;20071;-68
2021/05/27 01:03:55;;;;;;;17.85;9.75;;;14.40;80.50;;;;;;5062713;28;20053;-68
2021/05/27 01:06:21;;;;;;;16.10;8.45;;;14.40;80.70;;;;;;5058144;28;20039;-68
2021/05/27 01:08:46;;;;;;;18.88;8.98;;;14.30;80.70;;;;;;5053452;28;20033;-68
2021/05/27 01:11:14;;;;;;;19.70;9.60;;;14.30;80.70;;;;;;5064347;28;20041;-68
2021/05/27 01:13:40;;;;;;;20.23;9.32;;;14.30;80.90;;;;;;5071020;28;20414;-68
2021/05/27 01:16:15;;;;;;;18.70;9.25;;;14.30;80.90;;;;;;5053634;28;20101;-68
2021/05/27 01:18:41;;;;;;;16.55;9.02;;;14.30;80.90;;;;;;5054221;28;20063;-68
2021/05/27 01:21:07;;;;;;;19.58;9.90;;;14.40;80.90;;;;;;5059349;28;20028;-68
2021/05/27 01:23:33;;;;;;;13.88;8.70;;;14.40;80.90;;;;;;5071602;28;20029;-68
2021/05/27 01:25:59;;;;;;;16.40;8.50;;;14.30;80.90;;;;;;5072977;28;20078;-68
2021/05/27 01:28:32;;;;;;;14.30;8.18;;;14.40;80.90;;;;;;5069980;28;20517;-68
2021/05/27 01:30:58;;;;;;;15.10;8.15;;;14.40;81.00;;;;;;5071087;28;20039;-68
2021/05/27 01:33:24;;;;;;;14.18;7.22;;;14.40;80.90;;;;;;5071632;28;20024;-68
2021/05/27 01:35:50;;;;;;;16.90;8.30;;;14.40;80.90;;;;;;5062093;28;20037;-68
2021/05/27 01:38:18;;;;;;;18.98;8.55;;;14.30;81.00;;;;;;5055182;28;20060;-68
2021/05/27 01:40:44;;;;;;;14.05;7.53;;;14.30;81.20;;;;;;5060661;28;20120;-69
2021/05/27 01:43:11;;;;;;;17.45;8.20;;;14.30;81.40;;;;;;5061599;28;20051;-68
2021/05/27 01:45:38;;;;;;;14.90;7.63;;;14.20;81.40;;;;;;5059544;28;20446;-68
2021/05/27 01:48:04;;;;;;;18.15;8.05;;;14.20;81.40;;;;;;5054917;28;20053;-68
2021/05/27 01:50:31;;;;;;;14.98;8.73;;;14.10;81.40;;;;;;5062378;28;20124;-68
2021/05/27 01:53:06;;;;;;;10.98;7.30;;;14.10;81.60;;;;;;5052263;28;20440;-68
2021/05/27 01:55:31;;;;;;;14.00;6.65;;;14.10;81.80;;;;;;5052902;28;20459;-68
2021/05/27 01:57:59;;;;;;;14.02;7.75;;;14.10;81.60;;;;;;5054512;28;20029;-68
2021/05/27 02:00:27;;;;;;;18.17;8.77;;;14.00;81.80;;;;;;5052129;28;20120;-68
2021/05/27 02:02:52;;;;;;;17.52;8.38;;;14.00;82.00;;;;;;5055430;28;20029;-68
2021/05/27 02:05:18;;;;;;;14.88;8.18;;;14.00;82.00;;;;;;5054231;28;20107;-69
2021/05/27 02:07:44;;;;;;;12.65;7.28;;;14.10;82.10;;;;;;5056723;28;20052;-69
2021/05/27 02:10:10;;;;;;;14.13;7.25;;;14.00;81.90;;;;;;5052564;28;20059;-69
2021/05/27 02:12:36;;;;;;;18.75;8.18;;;14.10;81.80;;;;;;5052077;28;20135;-69
2021/05/27 02:15:04;;;;;;;15.98;7.85;;;14.20;81.70;;;;;;5060766;28;20454;-69
2021/05/27 02:17:30;;;;;;;15.73;8.18;;;14.20;81.80;;;;;;5064185;28;20458;-69
2021/05/27 02:19:55;;;;;;;15.68;8.55;;;14.20;81.80;;;;;;5065395;28;20082;-69
2021/05/27 02:22:21;;;;;;;12.95;6.93;;;14.10;82.00;;;;;;5060363;28;20040;-69
2021/05/27 02:24:47;;;;;;;13.93;7.93;;;14.10;82.20;;;;;;5049764;28;20095;-68
2021/05/27 02:27:13;;;;;;;15.88;7.43;;;14.00;82.30;;;;;;5072471;28;20102;-69
2021/05/27 02:29:38;;;;;;;14.45;7.78;;;14.00;82.40;;;;;;5068846;28;20054;-69
2021/05/27 02:32:04;;;;;;;13.10;7.30;;;14.00;82.40;;;;;;5064376;28;20041;-69
2021/05/27 02:34:30;;;;;;;12.32;6.97;;;14.00;82.30;;;;;;5052352;28;20040;-69
2021/05/27 02:36:56;;;;;;;14.85;7.40;;;14.10;82.30;;;;;;5050419;28;20040;-69
2021/05/27 02:39:21;;;;;;;16.67;7.85;;;14.10;82.10;;;;;;5067914;28;20036;-69
2021/05/27 02:41:47;;;;;;;14.35;7.10;;;14.10;82.10;;;;;;5070139;28;20029;-69
2021/05/27 02:44:13;;;;;;;12.85;6.70;;;14.10;82.30;;;;;;5060742;28;20041;-69
2021/05/27 02:46:39;;;;;;;14.93;7.40;;;14.00;82.30;;;;;;5051166;28;20349;-69
2021/05/27 02:49:06;;;;;;;13.60;6.07;;;14.00;82.40;;;;;;5052994;28;20037;-69
2021/05/27 02:51:32;;;;;;;14.15;6.93;;;14.00;82.30;;;;;;5051743;28;20035;-69
2021/05/27 02:53:58;;;;;;;12.40;7.20;;;14.00;82.40;;;;;;5058258;28;20041;-70
2021/05/27 02:56:24;;;;;;;12.25;6.10;;;14.00;82.40;;;;;;5060125;28;20062;-69
2021/05/27 02:58:49;;;;;;;14.52;6.57;;;14.00;82.50;;;;;;5054990;28;20107;-70
2021/05/27 03:01:15;;;;;;;13.68;6.70;;;14.00;82.70;;;;;;5050822;28;20503;-70
2021/05/27 03:03:41;;;;;;;15.35;7.57;;;14.00;82.70;;;;;;5051611;28;20414;-69
2021/05/27 03:06:07;;;;;;;16.90;7.43;;;14.00;82.50;;;;;;5052127;28;20517;-69
2021/05/27 03:08:33;;;;;;;14.63;7.57;;;14.00;82.50;;;;;;5051739;28;20064;-69
2021/05/27 03:10:58;;;;;;;14.50;7.45;;;14.00;82.60;;;;;;5051255;28;20037;-69
2021/05/27 03:13:24;;;;;;;11.35;7.03;;;14.00;82.60;;;;;;5051696;28;20123;-69
2021/05/27 03:15:50;;;;;;;12.18;7.50;;;14.10;82.50;;;;;;5055033;28;20084;-70
2021/05/27 03:18:17;;;;;;;13.70;7.18;;;14.10;82.40;;;;;;5062723;28;20425;-69
2021/05/27 03:20:43;;;;;;;15.98;6.97;;;14.10;82.40;;;;;;5056850;28;20139;-69
2021/05/27 03:23:09;;;;;;;11.68;6.85;;;14.10;82.40;;;;;;5058663;28;20117;-69
2021/05/27 03:25:35;;;;;;;13.93;7.55;;;14.10;82.40;;;;;;5050610;28;20037;-69
2021/05/27 03:28:01;;;;;;;17.20;7.80;;;14.10;82.30;;;;;;5054491;28;20061;-70
2021/05/27 03:30:26;;;;;;;11.63;6.95;;;14.10;82.40;;;;;;5062876;28;20021;-70
2021/05/27 03:32:52;;;;;;;12.50;7.85;;;14.00;82.50;;;;;;5054977;28;20048;-69
2021/05/27 03:35:18;;;;;;;15.27;7.25;;;14.00;82.70;;;;;;5063831;28;20068;-69
2021/05/27 03:37:44;;;;;;;14.48;6.65;;;14.00;82.60;;;;;;5054220;28;20021;-69
2021/05/27 03:40:14;;;;;;;12.30;7.35;;;14.00;82.60;;;;;;5058462;28;20047;-69
2021/05/27 03:42:46;;;;;;;12.05;7.28;;;14.00;82.50;;;;;;5055131;28;20033;-69
2021/05/27 03:45:15;;;;;;;14.35;7.15;;;14.00;82.60;;;;;;5054681;28;20427;-70
2021/05/27 03:47:41;;;;;;;16.25;7.82;;;14.10;82.50;;;;;;5051412;28;20017;-70
2021/05/27 03:50:10;;;;;;;15.57;7.40;;;14.10;83.10;;;;;;5061600;28;20075;-70
2021/05/27 03:52:37;;;;;;;14.52;7.32;;;14.10;82.40;;;;;;5058736;28;20040;-70
2021/05/27 03:55:07;;;;;;;14.45;7.13;;;14.00;82.50;;;;;;5058240;28;20220;-70
2021/05/27 03:57:33;;;;;;;14.45;6.80;;;14.00;82.70;;;;;;5063838;28;20036;-70
2021/05/27 04:02:46;;;;;;;11.82;6.85;;;13.90;82.90;;;;;;5056002;28;20044;-70
2021/05/27 04:07:58;;;;;;;13.95;6.53;;;13.90;82.90;;;;;;5063546;28;20143;-70
2021/05/27 04:10:24;;;;;;;16.13;6.95;;;13.90;83.00;;;;;;5053623;28;20029;-70
2021/05/27 04:12:50;;;;;;;14.30;7.68;;;13.90;83.20;;;;;;5061023;28;20033;-70
2021/05/27 04:15:25;;;;;;;12.05;6.32;;;13.90;83.20;;;;;;5053696;28;20040;-70
2021/05/27 04:17:57;;;;;;;13.73;6.78;;;13.90;83.10;;;;;;5049916;28;20096;-70
2021/05/27 04:20:25;;;;;;;12.50;6.70;;;13.90;83.10;;;;;;5063646;28;20052;-70
2021/05/27 04:22:51;;;;;;;14.80;7.20;;;14.00;83.10;;;;;;5067874;28;20043;-70
2021/05/27 04:25:18;;;;;;;14.60;7.28;;;13.90;83.10;;;;;;5062314;28;20025;-71
2021/05/27 04:27:45;;;;;;;8.05;5.45;;;13.90;83.20;;;;;;5061311;28;20049;-70
2021/05/27 04:30:13;;;;;;;11.93;5.80;;;13.90;83.20;;;;;;5048722;28;20101;-70
2021/05/27 04:32:58;;;;;;;10.32;6.15;;;13.90;83.20;;;;;;5034455;28;20342;-69
2021/05/27 04:35:40;;;;;;;13.77;7.03;;;13.90;83.40;;;;;;5050736;28;20134;-70
2021/05/27 04:38:08;;;;;;;11.07;5.97;;;13.90;83.50;;;;;;5049146;28;20033;-70
2021/05/27 04:40:36;;;;;;;10.45;5.57;;;13.80;83.40;;;;;;5047417;28;20367;-69
2021/05/27 04:43:03;;;;;;;12.18;5.97;;;13.80;83.50;;;;;;5049150;28;20120;-70
2021/05/27 04:45:29;;;;;;;11.57;6.30;;;13.90;83.60;;;;;;5048680;28;20036;-70
2021/05/27 04:47:55;;;;;;;12.55;5.68;;;13.90;83.60;;;;;;5039864;28;20123;-70
2021/05/27 04:50:21;;;;;;;9.38;6.10;;;13.90;83.50;;;;;;5050018;28;20045;-70
2021/05/27 04:52:49;;;;;;;11.60;6.30;;;13.90;83.50;;;;;;5048452;28;20041;-69
2021/05/27 04:55:15;;;;;;;13.27;6.65;;;13.90;83.40;;;;;;5049668;28;20097;-69
2021/05/27 04:57:41;;;;;;;12.05;6.03;;;14.00;83.30;;;;;;5048091;28;20036;-70
2021/05/27 05:00:13;;;;;;;10.35;5.93;;;14.00;83.20;;;;;;5048071;28;20684;-70
2021/05/27 05:02:39;;;;;;;11.50;6.03;;;14.10;83.00;;;;;;5050338;28;20037;-70
2021/05/27 05:05:10;;;;;;;13.95;6.40;;;14.10;82.80;;;;;;5055596;28;20040;-70
2021/05/27 05:07:38;;;;;;;13.50;6.63;;;14.10;82.90;;;;;;5049431;28;20082;-70
2021/05/27 05:10:04;;;;;;;9.65;5.50;;;14.00;83.00;;;;;;5049043;28;20075;-70
2021/05/27 05:12:30;;;;;;;12.88;6.05;;;14.00;83.10;;;;;;5049142;28;20037;-70
2021/05/27 05:14:56;;;;;;;14.50;6.95;;;14.00;83.20;;;;;;5053501;28;20041;-70
2021/05/27 05:17:21;;;;;;;10.38;5.28;;;14.10;83.30;;;;;;5063646;28;20251;-70
2021/05/27 05:19:47;;;;;;;12.90;6.47;;;14.10;83.20;;;;;;5054988;28;20398;-70
2021/05/27 05:22:13;;;;;;;13.82;6.07;;;14.10;83.20;;;;;;5056528;28;20237;-69
2021/05/27 05:24:38;;;;;;;12.65;6.50;;;14.10;83.20;;;;;;5067616;28;20025;-70
2021/05/27 05:27:05;;;;;;;10.05;5.43;;;14.10;83.10;;;;;;5067875;28;20063;-70
2021/05/27 05:29:30;;;;;;;10.20;6.25;;;14.10;83.00;;;;;;5067855;28;20115;-70
2021/05/27 05:31:56;;;;;;;11.32;6.20;;;14.20;83.00;;;;;;5055552;28;20092;-70
2021/05/27 05:34:22;;;;;;;11.93;5.95;;;14.30;83.00;;;;;;5046150;28;20041;-70
2021/05/27 05:36:48;;;;;;;10.93;5.70;;;14.20;82.80;;;;;;5057797;28;20029;-70
2021/05/27 05:39:13;;;;;;;16.65;7.10;;;14.20;82.80;;;;;;5066430;28;20025;-70
2021/05/27 05:41:41;;;;;;;15.77;6.35;;;14.30;82.80;;;;;;5066603;28;20320;-70
2021/05/27 05:44:07;;;;;;;11.85;6.38;;;14.30;82.90;;;;;;5058118;28;20154;-69
2021/05/27 05:46:32;;;;;;;11.40;6.88;;;14.30;82.80;;;;;;5049513;28;20044;-70
2021/05/27 05:48:58;;;;;;;44.08;7.82;;;14.30;82.70;;;;;;5048960;28;20132;-70
2021/05/27 05:51:23;;;;;;;12.18;6.25;;;14.40;82.60;;;;;;5059340;28;20108;-70
2021/05/27 05:53:49;;;;;;;13.40;6.25;;;14.40;82.60;;;;;;5051791;28;20386;-70
2021/05/27 05:56:15;;;;;;;11.05;6.10;;;14.40;82.60;;;;;;5061957;28;20116;-70
2021/05/27 05:58:41;;;;;;;10.65;5.80;;;14.40;82.60;;;;;;5066927;28;20029;-70
2021/05/27 06:01:06;;;;;;;10.57;5.82;;;14.40;82.50;;;;;;5056941;28;20044;-70
2021/05/27 06:03:33;;;;;;;10.52;5.72;;;14.40;82.40;;;;;;5070976;28;20115;-70
2021/05/27 06:06:00;;;;;;;11.55;5.85;;;14.40;82.30;;;;;;5069815;28;20036;-70
2021/05/27 06:08:26;;;;;;;15.82;7.00;;;14.40;82.40;;;;;;5061427;28;20367;-68
2021/05/27 06:10:51;;;;;;;14.25;6.53;;;14.50;82.30;;;;;;5052454;28;20040;-70
2021/05/27 06:13:17;;;;;;;12.45;6.88;;;14.50;82.20;;;;;;5051330;28;20068;-70
2021/05/27 06:15:43;;;;;;;11.25;6.15;;;14.50;82.10;;;;;;5051210;28;20029;-70
2021/05/27 06:18:09;;;;;;;14.63;6.00;;;14.50;82.10;;;;;;5056239;28;20033;-71
2021/05/27 06:20:34;;;;;;;12.98;6.15;;;14.40;82.00;;;;;;5054769;28;20111;-70
2021/05/27 06:23:00;;;;;;;14.35;6.78;;;14.40;82.10;;;;;;5054349;28;20119;-70
2021/05/27 06:25:27;;;;;;;14.63;6.45;;;14.30;82.50;;;;;;5057572;28;20025;-72
2021/05/27 06:27:53;;;;;;;12.75;6.70;;;14.20;82.70;;;;;;5055855;28;20080;-70
2021/05/27 06:30:21;;;;;;;13.05;6.03;;;14.10;82.90;;;;;;5036383;28;20394;-70
2021/05/27 06:32:47;;;;;;;17.05;7.15;;;14.10;83.10;;;;;;5063843;28;20037;-70
2021/05/27 06:35:14;;;;;;;11.68;6.68;;;14.10;83.20;;;;;;5049895;28;20040;-71
2021/05/27 06:37:42;;;;;;;11.07;4.72;;;14.10;83.30;;;;;;5061256;28;20021;-70
2021/05/27 06:40:12;;;;;;;23.23;7.35;;;14.10;83.30;;;;;;5066023;28;20106;-70
2021/05/27 06:42:37;;;;;;;13.30;5.53;;;14.10;83.40;;;;;;5057037;28;20024;-70
2021/05/27 06:45:04;;;;;;;14.38;5.65;;;14.10;83.20;;;;;;5061051;28;20028;-71
2021/05/27 06:47:29;;;;;;;11.75;6.10;;;14.20;83.20;;;;;;5063856;28;20040;-72
2021/05/27 06:49:55;;;;;;;13.90;7.00;;;14.20;83.20;;;;;;5077508;28;20031;-69
2021/05/27 06:52:21;;;;;;;10.63;5.70;;;14.10;83.20;;;;;;5065417;28;20068;-70
2021/05/27 06:54:46;;;;;;;10.52;5.97;;;14.20;83.20;;;;;;5065560;28;20829;-72
2021/05/27 06:57:12;;;;;;;11.07;5.13;;;14.30;83.10;;;;;;5058155;28;20486;-72
2021/05/27 06:59:38;;;;;;;9.25;5.28;;;14.30;83.00;;;;;;5064424;28;20039;-72
2021/05/27 07:02:03;;;;;;;12.23;5.88;;;14.30;83.00;;;;;;5050000;28;20032;-72
2021/05/27 07:04:29;;;;;;;12.52;5.70;;;14.30;83.00;;;;;;5068965;28;20040;-72
2021/05/27 07:06:54;;;;;;;13.25;5.40;;;14.30;82.90;;;;;;5066348;28;20029;-72
2021/05/27 07:09:21;;;;;;;15.30;6.13;;;14.40;82.90;;;;;;5055349;28;20045;-72
2021/05/27 07:11:47;;;;;;;13.88;6.28;;;14.40;82.80;;;;;;5058273;28;20060;-72
2021/05/27 07:14:13;;;;;;;8.93;4.53;;;14.30;82.60;;;;;;5065585;28;20060;-71
2021/05/27 07:16:39;;;;;;;9.57;5.13;;;14.40;82.80;;;;;;5068449;28;20084;-70
2021/05/27 07:19:04;;;;;;;14.68;6.57;;;14.40;82.70;;;;;;5062765;28;20033;-71
2021/05/27 07:21:30;;;;;;;15.30;6.35;;;14.40;82.70;;;;;;5069987;28;20029;-69
2021/05/27 07:23:56;;;;;;;14.45;5.25;;;14.40;82.80;;;;;;5064685;28;20044;-69
2021/05/27 07:26:22;;;;;;;11.90;4.90;;;14.40;82.90;;;;;;5056859;28;20447;-69
2021/05/27 07:28:48;;;;;;;9.20;4.82;;;14.40;82.90;;;;;;5045138;28;20060;-69
2021/05/27 07:31:14;;;;;;;14.93;5.45;;;14.50;82.90;;;;;;5050720;28;20505;-69
2021/05/27 07:33:39;;;;;;;11.95;5.68;;;14.50;82.80;;;;;;5054696;28;20028;-69
2021/05/27 07:36:05;;;;;;;12.63;5.57;;;14.50;82.70;;;;;;5064588;28;20069;-69
2021/05/27 07:38:31;;;;;;;12.27;5.07;;;14.50;82.80;;;;;;5051439;28;20033;-69
2021/05/27 07:40:58;;;;;;;10.18;5.60;;;14.50;82.70;;;;;;5054952;28;20116;-69
2021/05/27 07:43:23;;;;;;;9.50;4.38;;;14.50;82.70;;;;;;5051061;28;20060;-69
2021/05/27 07:45:49;;;;;;;16.35;5.90;;;14.50;82.70;;;;;;5049957;28;20067;-69
2021/05/27 07:48:15;;;;;;;14.13;6.22;;;14.50;82.70;;;;;;5064744;28;20042;-69
2021/05/27 07:50:40;;;;;;;10.30;4.72;;;14.50;82.70;;;;;;5056542;28;20028;-69
2021/05/27 07:53:07;;;;;;;9.93;5.35;;;14.40;82.50;;;;;;5054849;28;20052;-69
2021/05/27 07:55:33;;;;;;;9.95;4.55;;;14.40;82.70;;;;;;5050721;28;20090;-69
2021/05/27 07:57:59;;;;;;;11.48;5.47;;;14.50;82.70;;;;;;5057374;28;20069;-70
2021/05/27 08:00:25;;;;;;;10.30;4.82;;;14.50;82.60;;;;;;5049151;28;20029;-70
2021/05/27 08:02:51;;;;;;;11.10;5.43;;;14.50;82.50;;;;;;5059149;28;20064;-69
2021/05/27 08:05:19;;;;;;;11.95;4.82;;;14.50;82.60;;;;;;5066460;28;20170;-69
2021/05/27 08:07:46;;;;;;;11.02;5.00;;;14.40;82.60;;;;;;5054763;28;20048;-69
2021/05/27 08:10:12;;;;;;;9.80;4.88;;;14.50;82.70;;;;;;5050115;28;20029;-69
2021/05/27 08:12:39;;;;;;;12.40;5.43;;;14.50;82.80;;;;;;5050587;28;20478;-69
2021/05/27 08:15:06;;;;;;;15.05;5.50;;;14.50;82.50;;;;;;5049205;28;20032;-69
2021/05/27 08:17:32;;;;;;;13.65;5.65;;;14.40;82.50;;;;;;5051107;28;20118;-69
2021/05/27 08:19:58;;;;;;;16.73;5.18;;;14.30;82.70;;;;;;5056482;28;20506;-69
2021/05/27 08:22:27;;;;;;;11.40;4.75;;;14.40;82.90;;;;;;5069069;28;20474;-70
2021/05/27 08:24:52;;;;;;;16.13;6.13;;;14.40;82.90;;;;;;5068874;28;20085;-69
2021/05/27 08:27:18;;;;;;;18.30;6.32;;;14.40;82.90;;;;;;5062074;28;20128;-69
2021/05/27 08:29:44;;;;;;;12.88;5.47;;;14.40;82.90;;;;;;5058214;28;20468;-70
2021/05/27 08:32:09;;;;;;;14.13;6.15;;;14.40;83.00;;;;;;5063655;28;20037;-67
2021/05/27 08:34:35;;;;;;;14.63;6.10;;;14.40;83.20;;;;;;5050125;28;20029;-68
2021/05/27 08:37:01;;;;;;;13.43;5.40;;;14.50;83.10;;;;;;5058286;28;20418;-69
2021/05/27 08:39:27;;;;;;;11.13;4.63;;;14.60;83.00;;;;;;5053213;28;20347;-67
2021/05/27 08:41:52;;;;;;;15.15;6.32;;;14.70;82.90;;;;;;5056661;28;20103;-68
2021/05/27 08:44:18;;;;;;;9.93;4.85;;;14.70;82.70;;;;;;5051116;28;20090;-68
2021/05/27 08:46:47;;;;;;;12.85;5.90;;;14.70;82.80;;;;;;5050287;28;20074;-67
2021/05/27 08:49:13;;;;;;;9.98;5.15;;;14.80;82.80;;;;;;5061067;28;20052;-68
2021/05/27 08:51:39;;;;;;;13.02;5.38;;;14.90;82.80;;;;;;5069075;28;20071;-68
2021/05/27 08:54:05;;;;;;;12.43;5.68;;;15.00;82.70;;;;;;5069538;28;20047;-68
2021/05/27 08:56:32;;;;;;;11.63;5.40;;;15.20;82.50;;;;;;5066274;28;20040;-68
2021/05/27 08:58:58;;;;;;;12.60;5.55;;;15.40;82.10;;;;;;5049928;28;20700;-68
2021/05/27 09:01:24;;;;;;;13.77;5.72;;;15.50;81.70;;;;;;5054631;28;20369;-68
2021/05/27 09:03:50;;;;;;;13.00;5.20;;;15.60;81.40;;;;;;5059664;28;20121;-68
2021/05/27 09:06:16;;;;;;;12.07;6.20;;;15.60;81.50;;;;;;5059632;28;20033;-68
2021/05/27 09:08:44;;;;;;;11.30;6.07;;;15.60;81.30;;;;;;5060071;28;20415;-68
2021/05/27 09:11:13;;;;;;;13.13;5.47;;;15.60;81.00;;;;;;5066354;28;20035;-68
2021/05/27 09:13:51;;;;;;;11.38;5.68;;;15.60;80.90;;;;;;5068775;28;20032;-68
2021/05/27 09:16:18;;;;;;;13.93;5.75;;;15.50;81.20;;;;;;5055218;28;20029;-68
2021/05/27 09:18:44;;;;;;;10.55;5.68;;;15.50;80.90;;;;;;5058422;28;20039;-68
2021/05/27 09:21:15;;;;;;;11.82;5.95;;;15.40;80.90;;;;;;5067114;28;20067;-70
2021/05/27 09:23:52;;;;;;;13.65;6.15;;;15.30;80.60;;;;;;5046837;28;20383;-68
2021/05/27 09:26:19;;;;;;;12.63;4.95;;;15.20;81.00;;;;;;5062622;28;20052;-68
2021/05/27 09:28:46;;;;;;;11.18;5.85;;;15.20;81.10;;;;;;5060486;28;20482;-68
2021/05/27 09:31:19;;;;;;;12.45;5.35;;;15.20;81.30;;;;;;5052194;28;20083;-68
2021/05/27 09:33:47;;;;;;;10.27;5.32;;;15.10;81.50;;;;;;5057006;28;20086;-68
2021/05/27 09:36:13;;;;;;;14.30;6.07;;;15.30;81.40;;;;;;5065594;28;20053;-68
2021/05/27 09:38:56;;;;;;;11.77;5.65;;;15.40;81.10;;;;;;5054732;28;20068;-68
2021/05/27 09:41:31;;;;;;;11.00;5.45;;;15.30;80.90;;;;;;5069425;28;20048;-68
2021/05/27 09:44:05;;;;;;;16.35;6.40;;;15.20;80.80;;;;;;5057086;28;20039;-69
2021/05/27 09:46:52;;;;;;;14.98;6.68;;;15.00;80.90;;;;;;5064622;28;20021;-68
2021/05/27 09:49:23;;;;;;;16.33;6.72;;;15.00;81.40;;;;;;5062566;28;20037;-68
2021/05/27 09:51:51;;;;;;;17.85;7.75;;;15.10;81.20;;;;;;5052986;28;20021;-69
2021/05/27 09:54:17;;;;;;;15.32;7.25;;;15.00;81.20;;;;;;5053324;28;20033;-69
2021/05/27 09:56:43;;;;;;;14.95;6.88;;;15.00;81.50;;;;;;5064141;28;20058;-69
2021/05/27 09:59:10;;;;;;;13.07;6.53;;;15.00;81.60;;;;;;5062850;28;20044;-68
2021/05/27 10:01:36;;;;;;;19.42;7.40;;;15.00;81.60;;;;;;5052121;28;20443;-69
2021/05/27 10:04:20;;;;;;;14.18;6.35;;;15.20;81.70;;;;;;5068554;28;20036;-69
2021/05/27 10:06:45;;;;;;;;;;;15.20;81.70;;;;;;5071148;28;20037;-69
2021/05/27 10:09:11;;;;;;;16.13;7.72;;;15.40;81.10;;;;;;5062467;28;19920;-68
2021/05/27 10:11:39;;;;;;;16.08;8.18;;;15.40;80.70;;;;;;5064599;28;20782;-69
2021/05/27 10:14:07;;;;;;;17.85;8.75;;;15.30;80.80;;;;;;5058393;28;20033;-68
2021/05/27 10:16:36;;;;;;;21.90;9.10;;;15.30;80.90;;;;;;5060834;28;20060;-68
2021/05/27 10:19:03;;;;;;;18.40;7.88;;;15.30;81.00;;;;;;5061410;28;20032;-68
2021/05/27 10:21:28;;;;;;;18.88;9.60;;;15.30;80.80;;;;;;5056085;28;20033;-68
2021/05/27 10:23:57;;;;;;;16.55;8.48;;;15.30;80.80;;;;;;5059261;28;20458;-68
2021/05/27 10:26:23;;;;;;;17.85;8.85;;;15.30;81.10;;;;;;5054926;28;20532;-68
2021/05/27 10:28:52;;;;;;;17.63;9.10;;;15.30;81.00;;;;;;5062698;28;20115;-69
2021/05/27 10:31:21;;;;;;;17.73;9.68;;;15.30;80.70;;;;;;5051874;28;20037;-68
2021/05/27 10:33:47;;;;;;;16.33;8.95;;;15.30;80.60;;;;;;5059669;28;20047;-68
2021/05/27 10:36:13;;;;;;;16.65;7.95;;;15.30;80.40;;;;;;5071152;28;20036;-68
2021/05/27 10:38:42;;;;;;;16.30;8.52;;;15.20;80.50;;;;;;5056537;28;20021;-68
2021/05/27 10:41:11;;;;;;;14.95;8.07;;;15.20;80.90;;;;;;5059485;28;20035;-68
2021/05/27 10:44:04;;;;;;;13.98;7.70;;;15.30;80.90;;;;;;5053159;28;20047;-68
2021/05/27 10:46:53;;;;;;;16.88;8.93;;;15.30;80.90;;;;;;5049970;28;20028;-69
2021/05/27 10:49:38;;;;;;;16.27;8.23;;;15.40;80.80;;;;;;5049122;28;20041;-68
2021/05/27 10:52:35;;;;;;;17.77;9.10;;;15.40;80.90;;;;;;5051891;28;20029;-68
2021/05/27 10:55:27;;;;;;;20.20;7.93;;;15.50;81.10;;;;;;5051721;28;20067;-68
2021/05/27 10:57:53;;;;;;;17.17;7.82;;;15.60;80.80;;;;;;5059393;28;20207;-69
2021/05/27 11:00:19;;;;;;;20.50;8.32;;;15.50;81.00;;;;;;5062343;28;20482;-68
2021/05/27 11:02:44;;;;;;;21.08;7.97;;;15.40;81.30;;;;;;5058775;28;20032;-68
2021/05/27 11:05:22;;;;;;;16.65;8.27;;;15.40;81.40;;;;;;5053471;28;20051;-69
2021/05/27 11:08:17;;;;;;;13.20;7.13;;;15.40;81.50;;;;;;5051082;28;20033;-68
2021/05/27 11:10:43;;;;;;;13.75;7.60;;;15.30;81.90;;;;;;5065817;28;20093;-69
2021/05/27 11:13:08;;;;;;;12.40;8.13;;;15.40;81.80;;;;;;5064804;28;20040;-69
2021/05/27 11:15:34;;;;;;;12.93;7.28;;;15.40;81.70;;;;;;5049680;28;20061;-68
2021/05/27 11:18:05;;;;;;;15.70;7.47;;;15.50;81.80;;;;;;5056925;28;20044;-68
2021/05/27 11:20:32;;;;;;;19.95;9.13;;;15.50;81.80;;;;;;5064510;28;20036;-69
2021/05/27 11:23:25;;;;;;;16.98;7.60;;;15.60;81.60;;;;;;5066183;28;20037;-68
2021/05/27 11:25:51;;;;;;;15.95;7.95;;;15.40;81.80;;;;;;5053737;28;20463;-69
2021/05/27 11:28:17;;;;;;;18.15;8.38;;;15.50;81.50;;;;;;5051586;28;20128;-68
2021/05/27 11:30:45;;;;;;;15.38;8.02;;;15.40;81.60;;;;;;5048668;28;20169;-68
2021/05/27 11:33:23;;;;;;;14.75;7.47;;;15.50;81.70;;;;;;5050693;28;20509;-69
2021/05/27 11:35:54;;;;;;;14.07;7.90;;;15.50;81.90;;;;;;5051177;28;20035;-68
2021/05/27 11:38:27;;;;;;;14.77;7.97;;;15.60;82.00;;;;;;5051318;28;20025;-68
2021/05/27 11:40:58;;;;;;;12.05;7.15;;;15.60;82.00;;;;;;5054700;28;20052;-68
2021/05/27 11:43:30;;;;;;;12.57;6.90;;;15.70;81.90;;;;;;5066717;28;20029;-68
2021/05/27 11:45:57;;;;;;;13.27;6.88;;;15.80;81.80;;;;;;5063951;28;20095;-68
2021/05/27 11:48:36;;;;;;;15.80;7.25;;;15.90;81.50;;;;;;5051179;28;20054;-68
2021/05/27 11:51:11;;;;;;;19.50;7.68;;;15.90;81.40;;;;;;5049567;28;20037;-69
2021/05/27 11:53:52;;;;;;;12.48;7.22;;;16.00;81.50;;;;;;5050772;28;20037;-69
2021/05/27 11:56:44;;;;;;;11.20;5.88;;;16.30;81.40;;;;;;5058410;28;20083;-69
2021/05/27 11:59:18;;;;;;;11.23;5.90;;;16.60;80.90;;;;;;5049459;28;20025;-69
2021/05/27 12:01:58;;;;;;;10.13;5.45;;;16.70;80.10;;;;;;5049625;28;20539;-69
2021/05/27 12:04:25;;;;;;;9.43;5.38;;;16.70;79.50;;;;;;5059851;28;20494;-68
2021/05/27 12:07:03;;;;;;;11.93;6.57;;;16.80;79.70;;;;;;5054977;28;20047;-68
2021/05/27 12:09:33;;;;;;;10.80;6.47;;;16.70;79.60;;;;;;5061464;28;20390;-68
2021/05/27 12:12:09;;;;;;;9.45;5.85;;;16.80;79.20;;;;;;5051073;28;20184;-68
2021/05/27 12:15:05;;;;;;;13.07;6.30;;;16.60;79.30;;;;;;5059905;28;20028;-69
2021/05/27 12:17:36;;;;;;;12.05;5.70;;;16.50;79.40;;;;;;5059364;28;20144;-69
2021/05/27 12:20:08;;;;;;;13.40;6.05;;;16.50;79.30;;;;;;5063842;28;20127;-68
2021/05/27 12:22:52;;;;;;;11.90;4.70;;;16.50;79.60;;;;;;5080962;28;20128;-69
2021/05/27 12:25:19;;;;;;;;;;;16.50;79.80;;;;;;5068306;28;20051;-68
2021/05/27 12:27:48;;;;;;;10.65;5.20;;;16.60;79.50;;;;;;5054746;28;20022;-69
2021/05/27 12:30:30;;;;;;;10.13;4.95;;;16.40;79.40;;;;;;5064244;28;20028;-69
2021/05/27 12:32:57;;;;;;;9.75;4.32;;;16.30;80.00;;;;;;5076382;28;20124;-69
2021/05/27 12:35:29;;;;;;;9.43;5.57;;;16.40;80.00;;;;;;5061371;28;20102;-69
2021/05/27 12:37:56;;;;;;;11.35;4.70;;;16.40;80.10;;;;;;5067969;28;20031;-69
2021/05/27 12:40:35;;;;;;;11.95;5.70;;;16.60;80.00;;;;;;5048290;28;20029;-69
2021/05/27 12:43:04;;;;;;;8.77;4.97;;;16.70;80.10;;;;;;5050635;28;20029;-69
2021/05/27 12:45:38;;;;;;;9.82;4.65;;;17.00;80.20;;;;;;5055348;28;20103;-69
2021/05/27 12:48:13;;;;;;;12.15;5.18;;;17.40;79.50;;;;;;5049016;28;20025;-68